sensor_id;sensor_type;location;lat;lon;timestamp;P1;durP1;ratioP1;P2;durP2;ratioP2
33108;SDS011;19481;51.118;6.940;2023-08-31T00:02:18;4.78;;;1.73;;
33108;SDS011;19481;51.118;6.940;2023-08-31T00:07:20;4.57;;;1.80;;
33108;SDS011;19481;51.118;6.940;2023-08-31T00:12:24;5.60;;;1.90;;
33108;SDS011;19481;51.118;6.940;2023-08-31T00:17:25;1.95;;;1.58;;
33108;SDS011;19481;51.118;6.940;2023-08-31T00:22:27;4.30;;;1.45;;
33108;SDS011;19481;51.118;6.940;2023-08-31T00:27:30;1.35;;;1.27;;
33108;SDS011;19481;51.118;6.940;2023-08-31T00:32:32;3.70;;;1.85;;
33108;SDS011;19481;51.118;6.940;2023-08-31T00:37:34;2.47;;;1.73;;
33108;SDS011;19481;51.118;6.940;2023-08-31T00:42:37;4.38;;;1.70;;
33108;SDS011;19481;51.118;6.940;2023-08-31T00:47:39;3.80;;;1.70;;
33108;SDS011;19481;51.118;6.940;2023-08-31T00:52:41;5.75;;;1.83;;
33108;SDS011;19481;51.118;6.940;2023-08-31T00:57:45;8.18;;;1.92;;
33108;SDS011;19481;51.118;6.940;2023-08-31T01:02:50;4.72;;;2.08;;
33108;SDS011;19481;51.118;6.940;2023-08-31T01:08:03;3.95;;;2.20;;
33108;SDS011;19481;51.118;6.940;2023-08-31T01:13:19;2.35;;;1.67;;
33108;SDS011;19481;51.118;6.940;2023-08-31T01:18:25;2.53;;;1.90;;
33108;SDS011;19481;51.118;6.940;2023-08-31T01:23:29;3.47;;;1.52;;
33108;SDS011;19481;51.118;6.940;2023-08-31T01:28:37;6.97;;;1.67;;
33108;SDS011;19481;51.118;6.940;2023-08-31T01:33:40;4.20;;;1.65;;
33108;SDS011;19481;51.118;6.940;2023-08-31T01:38:41;4.63;;;1.73;;
33108;SDS011;19481;51.118;6.940;2023-08-31T01:43:48;2.88;;;1.77;;
33108;SDS011;19481;51.118;6.940;2023-08-31T01:48:51;6.15;;;1.95;;
33108;SDS011;19481;51.118;6.940;2023-08-31T01:53:53;3.67;;;2.20;;
33108;SDS011;19481;51.118;6.940;2023-08-31T01:58:56;2.83;;;1.65;;
33108;SDS011;19481;51.118;6.940;2023-08-31T02:03:57;3.50;;;1.80;;
33108;SDS011;19481;51.118;6.940;2023-08-31T02:08:59;3.20;;;1.80;;
33108;SDS011;19481;51.118;6.940;2023-08-31T02:14:02;2.83;;;2.03;;
33108;SDS011;19481;51.118;6.940;2023-08-31T02:19:04;4.72;;;2.30;;
33108;SDS011;19481;51.118;6.940;2023-08-31T02:24:06;3.55;;;1.92;;
33108;SDS011;19481;51.118;6.940;2023-08-31T02:29:09;2.65;;;2.03;;
33108;SDS011;19481;51.118;6.940;2023-08-31T02:34:11;4.90;;;2.10;;
33108;SDS011;19481;51.118;6.940;2023-08-31T02:39:12;4.40;;;2.15;;
33108;SDS011;19481;51.118;6.940;2023-08-31T02:44:17;2.33;;;1.80;;
33108;SDS011;19481;51.118;6.940;2023-08-31T02:49:19;2.38;;;2.17;;
33108;SDS011;19481;51.118;6.940;2023-08-31T02:54:20;1.90;;;1.80;;
33108;SDS011;19481;51.118;6.940;2023-08-31T02:59:23;5.82;;;2.25;;
33108;SDS011;19481;51.118;6.940;2023-08-31T03:04:25;2.30;;;1.95;;
33108;SDS011;19481;51.118;6.940;2023-08-31T03:09:27;3.42;;;1.75;;
33108;SDS011;19481;51.118;6.940;2023-08-31T03:14:29;3.90;;;2.10;;
33108;SDS011;19481;51.118;6.940;2023-08-31T03:19:31;3.22;;;2.00;;
33108;SDS011;19481;51.118;6.940;2023-08-31T03:24:33;2.30;;;2.03;;
33108;SDS011;19481;51.118;6.940;2023-08-31T03:29:36;2.22;;;1.83;;
33108;SDS011;19481;51.118;6.940;2023-08-31T03:34:37;4.38;;;2.10;;
33108;SDS011;19481;51.118;6.940;2023-08-31T03:39:39;2.55;;;2.35;;
33108;SDS011;19481;51.118;6.940;2023-08-31T03:44:42;1.90;;;1.75;;
33108;SDS011;19481;51.118;6.940;2023-08-31T03:49:44;3.75;;;2.28;;
33108;SDS011;19481;51.118;6.940;2023-08-31T03:54:46;5.35;;;2.35;;
33108;SDS011;19481;51.118;6.940;2023-08-31T03:59:49;3.92;;;2.50;;
33108;SDS011;19481;51.118;6.940;2023-08-31T04:04:50;3.08;;;2.00;;
33108;SDS011;19481;51.118;6.940;2023-08-31T04:09:52;3.35;;;2.58;;
33108;SDS011;19481;51.118;6.940;2023-08-31T04:14:55;3.25;;;2.00;;
33108;SDS011;19481;51.118;6.940;2023-08-31T04:19:57;3.88;;;2.35;;
33108;SDS011;19481;51.118;6.940;2023-08-31T04:24:58;4.60;;;2.50;;
33108;SDS011;19481;51.118;6.940;2023-08-31T04:30:01;4.97;;;2.50;;
33108;SDS011;19481;51.118;6.940;2023-08-31T04:35:03;2.85;;;2.30;;
33108;SDS011;19481;51.118;6.940;2023-08-31T04:40:06;4.05;;;2.35;;
33108;SDS011;19481;51.118;6.940;2023-08-31T04:45:10;3.08;;;2.30;;
33108;SDS011;19481;51.118;6.940;2023-08-31T04:50:12;3.10;;;2.20;;
33108;SDS011;19481;51.118;6.940;2023-08-31T04:55:14;5.55;;;2.40;;
33108;SDS011;19481;51.118;6.940;2023-08-31T05:00:17;2.88;;;2.33;;
33108;SDS011;19481;51.118;6.940;2023-08-31T05:05:19;3.83;;;2.47;;
33108;SDS011;19481;51.118;6.940;2023-08-31T05:10:20;3.58;;;2.53;;
33108;SDS011;19481;51.118;6.940;2023-08-31T05:15:24;6.57;;;2.60;;
33108;SDS011;19481;51.118;6.940;2023-08-31T05:20:27;3.20;;;2.53;;
33108;SDS011;19481;51.118;6.940;2023-08-31T05:25:29;2.25;;;2.05;;
33108;SDS011;19481;51.118;6.940;2023-08-31T05:30:32;2.88;;;2.33;;
33108;SDS011;19481;51.118;6.940;2023-08-31T05:35:35;5.75;;;2.75;;
33108;SDS011;19481;51.118;6.940;2023-08-31T05:40:37;5.22;;;2.72;;
33108;SDS011;19481;51.118;6.940;2023-08-31T05:45:40;2.65;;;2.45;;
33108;SDS011;19481;51.118;6.940;2023-08-31T05:50:42;5.95;;;2.63;;
33108;SDS011;19481;51.118;6.940;2023-08-31T05:55:44;9.73;;;5.38;;
33108;SDS011;19481;51.118;6.940;2023-08-31T06:00:47;3.30;;;2.30;;
33108;SDS011;19481;51.118;6.940;2023-08-31T06:05:49;3.00;;;2.40;;
33108;SDS011;19481;51.118;6.940;2023-08-31T06:10:51;4.50;;;2.50;;
33108;SDS011;19481;51.118;6.940;2023-08-31T06:15:54;2.72;;;2.25;;
33108;SDS011;19481;51.118;6.940;2023-08-31T06:20:57;4.07;;;2.08;;
33108;SDS011;19481;51.118;6.940;2023-08-31T06:25:59;7.40;;;2.55;;
33108;SDS011;19481;51.118;6.940;2023-08-31T06:31:02;2.97;;;1.90;;
33108;SDS011;19481;51.118;6.940;2023-08-31T06:36:04;2.40;;;1.95;;
33108;SDS011;19481;51.118;6.940;2023-08-31T06:41:05;4.10;;;2.30;;
33108;SDS011;19481;51.118;6.940;2023-08-31T06:46:10;9.15;;;2.25;;
33108;SDS011;19481;51.118;6.940;2023-08-31T06:51:12;2.20;;;1.75;;
33108;SDS011;19481;51.118;6.940;2023-08-31T06:56:13;2.30;;;1.30;;
33108;SDS011;19481;51.118;6.940;2023-08-31T07:01:16;6.72;;;2.05;;
33108;SDS011;19481;51.118;6.940;2023-08-31T07:06:18;3.13;;;1.40;;
33108;SDS011;19481;51.118;6.940;2023-08-31T07:11:19;2.10;;;1.50;;
33108;SDS011;19481;51.118;6.940;2023-08-31T07:16:22;2.58;;;1.27;;
33108;SDS011;19481;51.118;6.940;2023-08-31T07:21:24;3.20;;;1.50;;
33108;SDS011;19481;51.118;6.940;2023-08-31T07:26:26;3.00;;;1.02;;
33108;SDS011;19481;51.118;6.940;2023-08-31T07:31:30;3.00;;;1.23;;
33108;SDS011;19481;51.118;6.940;2023-08-31T07:36:32;1.52;;;0.93;;
33108;SDS011;19481;51.118;6.940;2023-08-31T07:41:34;3.83;;;1.02;;
33108;SDS011;19481;51.118;6.940;2023-08-31T07:46:37;2.97;;;0.98;;
33108;SDS011;19481;51.118;6.940;2023-08-31T07:51:38;5.78;;;1.25;;
33108;SDS011;19481;51.118;6.940;2023-08-31T07:56:40;2.35;;;1.00;;
33108;SDS011;19481;51.118;6.940;2023-08-31T08:01:43;3.08;;;1.17;;
33108;SDS011;19481;51.118;6.940;2023-08-31T08:06:45;3.10;;;1.00;;
33108;SDS011;19481;51.118;6.940;2023-08-31T08:11:46;1.73;;;0.90;;
33108;SDS011;19481;51.118;6.940;2023-08-31T08:16:49;1.60;;;1.00;;
33108;SDS011;19481;51.118;6.940;2023-08-31T08:21:51;4.30;;;1.25;;
33108;SDS011;19481;51.118;6.940;2023-08-31T08:26:53;2.80;;;0.80;;
33108;SDS011;19481;51.118;6.940;2023-08-31T08:31:55;2.15;;;0.93;;
33108;SDS011;19481;51.118;6.940;2023-08-31T08:36:57;2.15;;;0.80;;
33108;SDS011;19481;51.118;6.940;2023-08-31T08:41:59;1.75;;;1.08;;
33108;SDS011;19481;51.118;6.940;2023-08-31T08:47:02;2.30;;;1.02;;
33108;SDS011;19481;51.118;6.940;2023-08-31T08:52:04;2.75;;;1.00;;
33108;SDS011;19481;51.118;6.940;2023-08-31T08:57:06;1.65;;;0.80;;
33108;SDS011;19481;51.118;6.940;2023-08-31T09:02:10;3.78;;;1.25;;
33108;SDS011;19481;51.118;6.940;2023-08-31T09:07:12;2.28;;;1.10;;
33108;SDS011;19481;51.118;6.940;2023-08-31T09:12:13;4.25;;;1.00;;
33108;SDS011;19481;51.118;6.940;2023-08-31T09:17:16;1.65;;;1.00;;
33108;SDS011;19481;51.118;6.940;2023-08-31T09:22:18;1.95;;;1.00;;
33108;SDS011;19481;51.118;6.940;2023-08-31T09:27:23;3.83;;;1.20;;
33108;SDS011;19481;51.118;6.940;2023-08-31T09:32:26;2.15;;;1.00;;
33108;SDS011;19481;51.118;6.940;2023-08-31T09:37:28;2.08;;;1.00;;
33108;SDS011;19481;51.118;6.940;2023-08-31T09:42:36;2.13;;;0.85;;
33108;SDS011;19481;51.118;6.940;2023-08-31T09:47:40;1.10;;;1.00;;
33108;SDS011;19481;51.118;6.940;2023-08-31T09:52:42;2.65;;;1.08;;
33108;SDS011;19481;51.118;6.940;2023-08-31T09:57:45;1.95;;;1.00;;
33108;SDS011;19481;51.118;6.940;2023-08-31T10:02:50;1.35;;;1.00;;
33108;SDS011;19481;51.118;6.940;2023-08-31T10:07:52;2.10;;;1.20;;
33108;SDS011;19481;51.118;6.940;2023-08-31T10:12:58;2.05;;;1.10;;
33108;SDS011;19481;51.118;6.940;2023-08-31T10:18:02;2.67;;;1.10;;
33108;SDS011;19481;51.118;6.940;2023-08-31T10:23:06;5.05;;;1.00;;
33108;SDS011;19481;51.118;6.940;2023-08-31T10:28:16;3.53;;;1.30;;
33108;SDS011;19481;51.118;6.940;2023-08-31T10:33:22;1.63;;;1.00;;
33108;SDS011;19481;51.118;6.940;2023-08-31T10:38:25;2.60;;;0.90;;
33108;SDS011;19481;51.118;6.940;2023-08-31T10:43:28;2.05;;;0.90;;
33108;SDS011;19481;51.118;6.940;2023-08-31T10:48:53;5.40;;;1.30;;
33108;SDS011;19481;51.118;6.940;2023-08-31T10:54:05;5.22;;;1.17;;
33108;SDS011;19481;51.118;6.940;2023-08-31T10:59:09;3.65;;;1.00;;
33108;SDS011;19481;51.118;6.940;2023-08-31T11:04:12;2.75;;;0.80;;
33108;SDS011;19481;51.118;6.940;2023-08-31T11:09:18;1.30;;;1.10;;
33108;SDS011;19481;51.118;6.940;2023-08-31T11:14:21;4.88;;;1.10;;
33108;SDS011;19481;51.118;6.940;2023-08-31T11:19:24;4.25;;;1.00;;
33108;SDS011;19481;51.118;6.940;2023-08-31T11:24:26;5.70;;;1.25;;
33108;SDS011;19481;51.118;6.940;2023-08-31T11:29:28;1.73;;;1.10;;
33108;SDS011;19481;51.118;6.940;2023-08-31T11:34:31;2.95;;;1.25;;
33108;SDS011;19481;51.118;6.940;2023-08-31T11:39:33;2.58;;;1.02;;
33108;SDS011;19481;51.118;6.940;2023-08-31T11:44:34;3.42;;;0.90;;
33108;SDS011;19481;51.118;6.940;2023-08-31T11:49:37;2.08;;;1.00;;
33108;SDS011;19481;51.118;6.940;2023-08-31T11:54:41;1.30;;;1.00;;
33108;SDS011;19481;51.118;6.940;2023-08-31T11:59:43;2.63;;;1.23;;
33108;SDS011;19481;51.118;6.940;2023-08-31T12:04:46;3.65;;;1.15;;
33108;SDS011;19481;51.118;6.940;2023-08-31T12:09:48;2.83;;;1.08;;
33108;SDS011;19481;51.118;6.940;2023-08-31T12:14:52;2.97;;;1.10;;
33108;SDS011;19481;51.118;6.940;2023-08-31T12:20:01;1.77;;;0.93;;
33108;SDS011;19481;51.118;6.940;2023-08-31T12:25:05;2.50;;;0.70;;
33108;SDS011;19481;51.118;6.940;2023-08-31T12:30:07;2.92;;;0.90;;
33108;SDS011;19481;51.118;6.940;2023-08-31T12:35:11;2.20;;;1.00;;
33108;SDS011;19481;51.118;6.940;2023-08-31T12:40:15;1.58;;;0.98;;
33108;SDS011;19481;51.118;6.940;2023-08-31T12:45:19;4.50;;;1.20;;
33108;SDS011;19481;51.118;6.940;2023-08-31T12:50:22;2.55;;;1.10;;
33108;SDS011;19481;51.118;6.940;2023-08-31T12:55:24;7.53;;;0.90;;
33108;SDS011;19481;51.118;6.940;2023-08-31T13:00:25;4.43;;;1.30;;
33108;SDS011;19481;51.118;6.940;2023-08-31T13:05:28;4.15;;;1.10;;
33108;SDS011;19481;51.118;6.940;2023-08-31T13:10:30;1.25;;;1.02;;
33108;SDS011;19481;51.118;6.940;2023-08-31T13:15:32;2.80;;;1.27;;
33108;SDS011;19481;51.118;6.940;2023-08-31T13:20:35;1.85;;;1.15;;
33108;SDS011;19481;51.118;6.940;2023-08-31T13:25:36;5.72;;;1.30;;
33108;SDS011;19481;51.118;6.940;2023-08-31T13:30:39;3.00;;;1.08;;
33108;SDS011;19481;51.118;6.940;2023-08-31T13:35:44;2.75;;;1.33;;
33108;SDS011;19481;51.118;6.940;2023-08-31T13:40:47;3.40;;;1.27;;
33108;SDS011;19481;51.118;6.940;2023-08-31T13:45:49;4.45;;;1.75;;
33108;SDS011;19481;51.118;6.940;2023-08-31T13:50:52;3.33;;;1.20;;
33108;SDS011;19481;51.118;6.940;2023-08-31T13:55:54;2.38;;;1.20;;
33108;SDS011;19481;51.118;6.940;2023-08-31T14:00:56;3.03;;;1.10;;
33108;SDS011;19481;51.118;6.940;2023-08-31T14:05:59;5.20;;;1.30;;
33108;SDS011;19481;51.118;6.940;2023-08-31T14:11:01;2.08;;;1.10;;
33108;SDS011;19481;51.118;6.940;2023-08-31T14:16:02;2.28;;;1.10;;
33108;SDS011;19481;51.118;6.940;2023-08-31T14:21:06;2.53;;;1.23;;
33108;SDS011;19481;51.118;6.940;2023-08-31T14:26:15;3.90;;;1.02;;
33108;SDS011;19481;51.118;6.940;2023-08-31T14:31:17;3.17;;;1.08;;
33108;SDS011;19481;51.118;6.940;2023-08-31T14:36:20;2.63;;;1.08;;
33108;SDS011;19481;51.118;6.940;2023-08-31T14:41:21;1.23;;;1.13;;
33108;SDS011;19481;51.118;6.940;2023-08-31T14:46:23;2.55;;;1.27;;
33108;SDS011;19481;51.118;6.940;2023-08-31T14:51:26;2.60;;;1.10;;
33108;SDS011;19481;51.118;6.940;2023-08-31T14:56:27;2.05;;;1.25;;
33108;SDS011;19481;51.118;6.940;2023-08-31T15:01:29;3.05;;;1.20;;
33108;SDS011;19481;51.118;6.940;2023-08-31T15:06:32;1.35;;;1.00;;
33108;SDS011;19481;51.118;6.940;2023-08-31T15:11:33;1.92;;;1.10;;
33108;SDS011;19481;51.118;6.940;2023-08-31T15:16:36;5.88;;;1.40;;
33108;SDS011;19481;51.118;6.940;2023-08-31T15:21:39;5.20;;;1.30;;
33108;SDS011;19481;51.118;6.940;2023-08-31T15:26:41;5.63;;;1.17;;
33108;SDS011;19481;51.118;6.940;2023-08-31T15:31:43;2.55;;;1.50;;
33108;SDS011;19481;51.118;6.940;2023-08-31T15:36:46;3.10;;;1.20;;
33108;SDS011;19481;51.118;6.940;2023-08-31T15:41:47;4.60;;;1.10;;
33108;SDS011;19481;51.118;6.940;2023-08-31T15:46:49;2.63;;;1.40;;
33108;SDS011;19481;51.118;6.940;2023-08-31T15:51:52;1.50;;;1.00;;
33108;SDS011;19481;51.118;6.940;2023-08-31T15:56:54;2.75;;;1.30;;
33108;SDS011;19481;51.118;6.940;2023-08-31T16:01:56;4.57;;;1.13;;
33108;SDS011;19481;51.118;6.940;2023-08-31T16:07:00;5.57;;;1.20;;
33108;SDS011;19481;51.118;6.940;2023-08-31T16:12:03;4.35;;;1.13;;
33108;SDS011;19481;51.118;6.940;2023-08-31T16:17:05;2.33;;;1.02;;
33108;SDS011;19481;51.118;6.940;2023-08-31T16:22:08;2.20;;;0.90;;
33108;SDS011;19481;51.118;6.940;2023-08-31T16:27:09;3.45;;;1.00;;
33108;SDS011;19481;51.118;6.940;2023-08-31T16:32:11;5.82;;;1.35;;
33108;SDS011;19481;51.118;6.940;2023-08-31T16:37:14;2.17;;;1.30;;
33108;SDS011;19481;51.118;6.940;2023-08-31T16:42:15;4.55;;;1.60;;
33108;SDS011;19481;51.118;6.940;2023-08-31T16:47:17;3.38;;;1.40;;
33108;SDS011;19481;51.118;6.940;2023-08-31T16:52:20;2.15;;;1.20;;
33108;SDS011;19481;51.118;6.940;2023-08-31T16:57:22;2.78;;;1.50;;
33108;SDS011;19481;51.118;6.940;2023-08-31T17:02:23;1.63;;;1.30;;
33108;SDS011;19481;51.118;6.940;2023-08-31T17:07:26;3.22;;;1.30;;
33108;SDS011;19481;51.118;6.940;2023-08-31T17:12:28;2.42;;;1.25;;
33108;SDS011;19481;51.118;6.940;2023-08-31T17:17:32;1.80;;;1.30;;
33108;SDS011;19481;51.118;6.940;2023-08-31T17:22:35;4.15;;;1.67;;
33108;SDS011;19481;51.118;6.940;2023-08-31T17:27:36;1.95;;;1.30;;
33108;SDS011;19481;51.118;6.940;2023-08-31T17:32:38;3.42;;;1.58;;
33108;SDS011;19481;51.118;6.940;2023-08-31T17:37:41;2.15;;;1.55;;
33108;SDS011;19481;51.118;6.940;2023-08-31T17:42:42;4.55;;;1.75;;
33108;SDS011;19481;51.118;6.940;2023-08-31T17:47:44;2.83;;;1.05;;
33108;SDS011;19481;51.118;6.940;2023-08-31T17:52:47;3.13;;;1.77;;
33108;SDS011;19481;51.118;6.940;2023-08-31T17:57:49;5.75;;;1.58;;
33108;SDS011;19481;51.118;6.940;2023-08-31T18:02:53;3.22;;;1.83;;
33108;SDS011;19481;51.118;6.940;2023-08-31T18:07:56;2.00;;;1.40;;
33108;SDS011;19481;51.118;6.940;2023-08-31T18:12:59;4.05;;;2.00;;
33108;SDS011;19481;51.118;6.940;2023-08-31T18:18:00;6.13;;;1.60;;
33108;SDS011;19481;51.118;6.940;2023-08-31T18:23:04;3.88;;;1.65;;
33108;SDS011;19481;51.118;6.940;2023-08-31T18:28:05;4.72;;;1.80;;
33108;SDS011;19481;51.118;6.940;2023-08-31T18:33:07;2.53;;;1.70;;
33108;SDS011;19481;51.118;6.940;2023-08-31T18:38:10;2.72;;;1.35;;
33108;SDS011;19481;51.118;6.940;2023-08-31T18:43:12;5.43;;;1.65;;
33108;SDS011;19481;51.118;6.940;2023-08-31T18:48:14;2.90;;;1.80;;
33108;SDS011;19481;51.118;6.940;2023-08-31T18:53:17;5.47;;;1.88;;
33108;SDS011;19481;51.118;6.940;2023-08-31T18:58:19;5.15;;;2.10;;
33108;SDS011;19481;51.118;6.940;2023-08-31T19:03:21;3.78;;;2.05;;
33108;SDS011;19481;51.118;6.940;2023-08-31T19:08:24;4.10;;;1.77;;
33108;SDS011;19481;51.118;6.940;2023-08-31T19:13:26;3.47;;;2.40;;
33108;SDS011;19481;51.118;6.940;2023-08-31T19:18:27;5.63;;;1.73;;
33108;SDS011;19481;51.118;6.940;2023-08-31T19:23:30;5.57;;;2.05;;
33108;SDS011;19481;51.118;6.940;2023-08-31T19:28:32;8.77;;;2.08;;
33108;SDS011;19481;51.118;6.940;2023-08-31T19:33:35;3.10;;;2.10;;
33108;SDS011;19481;51.118;6.940;2023-08-31T19:38:38;7.13;;;2.20;;
33108;SDS011;19481;51.118;6.940;2023-08-31T19:43:39;7.00;;;2.33;;
33108;SDS011;19481;51.118;6.940;2023-08-31T19:48:41;4.00;;;2.17;;
33108;SDS011;19481;51.118;6.940;2023-08-31T19:53:44;5.72;;;2.05;;
33108;SDS011;19481;51.118;6.940;2023-08-31T19:58:46;2.88;;;1.77;;
33108;SDS011;19481;51.118;6.940;2023-08-31T20:03:48;5.70;;;1.70;;
33108;SDS011;19481;51.118;6.940;2023-08-31T20:08:51;6.88;;;1.73;;
33108;SDS011;19481;51.118;6.940;2023-08-31T20:13:52;5.25;;;1.33;;
33108;SDS011;19481;51.118;6.940;2023-08-31T20:18:55;3.72;;;1.67;;
33108;SDS011;19481;51.118;6.940;2023-08-31T20:24:00;6.30;;;1.55;;
33108;SDS011;19481;51.118;6.940;2023-08-31T20:29:02;5.22;;;1.63;;
33108;SDS011;19481;51.118;6.940;2023-08-31T20:34:03;4.22;;;1.58;;
33108;SDS011;19481;51.118;6.940;2023-08-31T20:39:07;1.90;;;1.30;;
33108;SDS011;19481;51.118;6.940;2023-08-31T20:44:09;4.00;;;1.67;;
33108;SDS011;19481;51.118;6.940;2023-08-31T20:49:10;3.83;;;2.17;;
33108;SDS011;19481;51.118;6.940;2023-08-31T20:54:15;2.80;;;1.60;;
33108;SDS011;19481;51.118;6.940;2023-08-31T20:59:17;6.18;;;1.90;;
33108;SDS011;19481;51.118;6.940;2023-08-31T21:04:19;5.22;;;1.40;;
33108;SDS011;19481;51.118;6.940;2023-08-31T21:09:22;3.67;;;1.65;;
33108;SDS011;19481;51.118;6.940;2023-08-31T21:14:23;4.82;;;1.77;;
33108;SDS011;19481;51.118;6.940;2023-08-31T21:19:26;4.50;;;1.45;;
33108;SDS011;19481;51.118;6.940;2023-08-31T21:24:29;5.85;;;1.60;;
33108;SDS011;19481;51.118;6.940;2023-08-31T21:29:31;6.05;;;1.80;;
33108;SDS011;19481;51.118;6.940;2023-08-31T21:34:33;8.52;;;1.88;;
33108;SDS011;19481;51.118;6.940;2023-08-31T21:39:36;5.68;;;1.60;;
33108;SDS011;19481;51.118;6.940;2023-08-31T21:44:37;3.33;;;1.60;;
33108;SDS011;19481;51.118;6.940;2023-08-31T21:49:39;4.43;;;1.80;;
33108;SDS011;19481;51.118;6.940;2023-08-31T21:54:42;2.55;;;1.55;;
33108;SDS011;19481;51.118;6.940;2023-08-31T21:59:43;2.83;;;1.52;;
33108;SDS011;19481;51.118;6.940;2023-08-31T22:04:45;3.03;;;1.80;;
33108;SDS011;19481;51.118;6.940;2023-08-31T22:09:48;5.30;;;1.77;;
33108;SDS011;19481;51.118;6.940;2023-08-31T22:14:50;3.85;;;2.00;;
33108;SDS011;19481;51.118;6.940;2023-08-31T22:19:52;4.80;;;2.08;;
33108;SDS011;19481;51.118;6.940;2023-08-31T22:24:56;4.57;;;1.67;;
33108;SDS011;19481;51.118;6.940;2023-08-31T22:29:58;4.95;;;2.00;;
33108;SDS011;19481;51.118;6.940;2023-08-31T22:34:59;5.53;;;2.03;;
33108;SDS011;19481;51.118;6.940;2023-08-31T22:40:03;4.43;;;1.92;;
33108;SDS011;19481;51.118;6.940;2023-08-31T22:45:06;5.07;;;1.88;;
33108;SDS011;19481;51.118;6.940;2023-08-31T22:50:09;3.53;;;1.70;;
33108;SDS011;19481;51.118;6.940;2023-08-31T22:55:11;3.50;;;1.80;;
33108;SDS011;19481;51.118;6.940;2023-08-31T23:00:13;3.35;;;2.00;;
33108;SDS011;19481;51.118;6.940;2023-08-31T23:05:15;7.00;;;2.08;;
33108;SDS011;19481;51.118;6.940;2023-08-31T23:10:18;4.28;;;1.90;;
33108;SDS011;19481;51.118;6.940;2023-08-31T23:15:20;7.93;;;2.20;;
33108;SDS011;19481;51.118;6.940;2023-08-31T23:20:22;2.15;;;1.65;;
33108;SDS011;19481;51.118;6.940;2023-08-31T23:25:25;6.80;;;2.17;;
33108;SDS011;19481;51.118;6.940;2023-08-31T23:30:27;5.55;;;2.20;;
33108;SDS011;19481;51.118;6.940;2023-08-31T23:35:29;6.50;;;2.25;;
33108;SDS011;19481;51.118;6.940;2023-08-31T23:40:33;2.70;;;1.77;;
33108;SDS011;19481;51.118;6.940;2023-08-31T23:45:34;5.30;;;1.77;;
33108;SDS011;19481;51.118;6.940;2023-08-31T23:50:36;3.42;;;2.05;;
33108;SDS011;19481;51.118;6.940;2023-08-31T23:55:39;3.70;;;1.95;;
